Erie International Tom Ridge Field Erie US
ICAO: KERI
IATA: ERI
Category: Large
Scheduled Services: Yes

Elevation: 732 ft
TransAlt. 18000 ft.

Airport Communications:
APP/DEP:121
ATIS:120.35
CLNC DEL:126.8
CTAF:118.1
GND:121.9
ALTOONA RDO:109.4
TWR:118.1
UNICOM:122.95

KERI Zoom In..

If you have problems with the map follow the link
https://www.worldairports.se/pages/airport.php?
ICAO=KERI

Runways:

(A) RW 02 length 3508 ft width 150 ft
---- / hdg 20

(B) RW 06 length 8420 ft width 150 ft
ILS 110.30 / hdg 64

(C) RW 20 length 3508 ft width 150 ft
---- / hdg 200

(D) RW 24 length 8420 ft width 150 ft
ILS 110.30 / hdg 244

Location; KERI
Day. 19 / Time. 01.21 Zulu
* Altimeter: 29.67
* Temperature: 03° c. 37.4°f.
* Wind from: 240° Speed 18 kn with Gusts up to 35 kn.
Dewpoint: -01° c.
Visibility: 9 Statute Miles.
Clouds: Scattered 2100 ft.
Clouds: Broken 2800 ft.
Clouds: Overcast 3800 ft.
Conditions: Light Rain.

KERI 190121Z 24018G35KT 9SM -RA SCT021 BKN028 OVC038 03/M01 A2967 RMK AO2 PK WND 26043/0104 RAB10 P0000 T00331006


Wind From 240°
Speed 18 kn.

 
 
jpsmedia worldairports.se 2020   terms of use